createdAt,value
2022-07-30T00:00:09.768Z,996.2
2022-07-30T00:01:11.814Z,996.2
2022-07-30T00:02:15.707Z,996.1
2022-07-30T00:03:18.102Z,996.2
2022-07-30T00:04:23.010Z,996.1
2022-07-30T00:05:24.280Z,996.2
2022-07-30T00:06:26.158Z,996.1
2022-07-30T00:07:27.716Z,996.2
2022-07-30T00:08:29.030Z,996.1
2022-07-30T00:09:37.112Z,996.1
2022-07-30T00:10:53.122Z,996.1
2022-07-30T00:11:55.226Z,996.1
2022-07-30T00:12:56.779Z,996.1
2022-07-30T00:13:59.216Z,996.1
2022-07-30T00:15:00.482Z,996.2
2022-07-30T00:16:02.101Z,996.1
2022-07-30T00:17:07.880Z,996.1
2022-07-30T00:18:13.878Z,996.1
2022-07-30T00:19:16.636Z,996.1
2022-07-30T00:20:19.446Z,996.1
2022-07-30T00:21:44.245Z,996.2
2022-07-30T00:22:46.903Z,996.2
2022-07-30T00:24:03.434Z,996.2
2022-07-30T00:25:04.484Z,996.1
2022-07-30T00:26:08.400Z,996.2
2022-07-30T00:27:10.783Z,996.1
2022-07-30T00:28:12.612Z,996.1
2022-07-30T00:29:14.446Z,996.1
2022-07-30T00:30:16.037Z,996.1
2022-07-30T00:31:17.456Z,996.2
2022-07-30T00:32:18.802Z,996.1
2022-07-30T00:33:21.707Z,996.1
2022-07-30T00:34:23.525Z,996.1
2022-07-30T00:35:28.576Z,996.1
2022-07-30T00:36:29.865Z,996.1
2022-07-30T00:37:30.885Z,996.1
2022-07-30T00:38:32.120Z,996.1
2022-07-30T00:39:33.946Z,996.1
2022-07-30T00:40:35.739Z,996.1
2022-07-30T00:41:37.006Z,996
2022-07-30T00:42:39.102Z,996
2022-07-30T00:43:40.376Z,996
2022-07-30T00:44:43.074Z,996
2022-07-30T00:45:44.913Z,996
2022-07-30T00:46:45.945Z,995.9
2022-07-30T00:47:48.072Z,996
2022-07-30T00:48:54.081Z,996
2022-07-30T00:49:55.850Z,996
2022-07-30T00:50:58.099Z,996
2022-07-30T00:52:00.022Z,996
2022-07-30T00:53:01.507Z,996
2022-07-30T00:54:03.370Z,996
2022-07-30T00:55:04.648Z,996
2022-07-30T00:56:06.487Z,996
2022-07-30T00:57:07.806Z,996
2022-07-30T00:58:11.512Z,996
2022-07-30T00:59:12.527Z,995.9
2022-07-30T01:00:13.869Z,995.9
2022-07-30T01:01:15.524Z,995.9
2022-07-30T01:02:17.035Z,995.9
2022-07-30T01:03:18.505Z,995.8
2022-07-30T01:04:20.081Z,995.9
2022-07-30T01:05:22.409Z,995.8
2022-07-30T01:06:23.636Z,995.8
2022-07-30T01:07:28.479Z,995.8
2022-07-30T01:08:29.498Z,995.8
2022-07-30T01:09:30.523Z,995.8
2022-07-30T01:10:32.868Z,995.8
2022-07-30T01:11:34.778Z,995.8
2022-07-30T01:12:36.728Z,995.8
2022-07-30T01:13:38.265Z,995.8
2022-07-30T01:14:39.255Z,995.8
2022-07-30T01:15:40.527Z,995.8
2022-07-30T01:16:41.985Z,995.8
2022-07-30T01:17:53.224Z,995.8
2022-07-30T01:18:55.361Z,995.7
2022-07-30T01:19:56.765Z,995.8
2022-07-30T01:20:58.309Z,995.8
2022-07-30T01:21:59.541Z,995.7
2022-07-30T01:23:00.549Z,995.8
2022-07-30T01:24:01.810Z,995.7
2022-07-30T01:25:02.805Z,995.8
2022-07-30T01:26:04.085Z,995.7
2022-07-30T01:27:07.769Z,995.7
2022-07-30T01:28:10.092Z,995.7
2022-07-30T01:29:12.425Z,995.7
2022-07-30T01:30:18.549Z,995.7
2022-07-30T01:31:21.258Z,995.7
2022-07-30T01:32:23.066Z,995.7
2022-07-30T01:33:24.639Z,995.7
2022-07-30T01:34:25.676Z,995.7
2022-07-30T01:35:27.219Z,995.7
2022-07-30T01:36:28.225Z,995.7
2022-07-30T01:37:29.215Z,995.7
2022-07-30T01:38:36.470Z,995.7
2022-07-30T01:39:37.659Z,995.7
2022-07-30T01:40:38.887Z,995.6
2022-07-30T01:41:42.414Z,995.6
2022-07-30T01:42:43.427Z,995.6
2022-07-30T01:43:44.767Z,995.6
2022-07-30T01:44:45.774Z,995.6
2022-07-30T01:45:47.507Z,995.7
2022-07-30T01:46:48.858Z,995.6
2022-07-30T01:47:49.860Z,995.7
2022-07-30T01:48:51.460Z,995.6
2022-07-30T01:49:54.780Z,995.6
2022-07-30T01:50:56.005Z,995.6
2022-07-30T01:51:56.995Z,995.6
2022-07-30T01:52:58.256Z,995.6
2022-07-30T01:54:00.501Z,995.6
2022-07-30T01:55:01.818Z,995.6
2022-07-30T01:56:04.867Z,995.6
2022-07-30T01:57:12.394Z,995.6
2022-07-30T01:58:13.959Z,995.6
2022-07-30T01:59:16.446Z,995.6
2022-07-30T02:00:17.747Z,995.6
2022-07-30T02:01:20.157Z,995.6
2022-07-30T02:02:21.475Z,995.6
2022-07-30T02:03:23.500Z,995.6
2022-07-30T02:04:25.069Z,995.6
2022-07-30T02:05:26.141Z,995.6
2022-07-30T02:06:27.139Z,995.6
2022-07-30T02:07:32.004Z,995.7
2022-07-30T02:08:33.044Z,995.7
2022-07-30T02:09:34.067Z,995.7
2022-07-30T02:10:35.139Z,995.6
2022-07-30T02:11:36.691Z,995.6
2022-07-30T02:12:39.241Z,995.6
2022-07-30T02:13:40.248Z,995.6
2022-07-30T02:14:45.067Z,995.6
2022-07-30T02:16:01.379Z,995.6
2022-07-30T02:17:05.102Z,995.5
2022-07-30T02:18:07.748Z,995.5
2022-07-30T02:19:09.203Z,995.5
2022-07-30T02:20:13.928Z,995.5
2022-07-30T02:21:15.751Z,995.5
2022-07-30T02:22:23.551Z,995.5
2022-07-30T02:23:25.207Z,995.5
2022-07-30T02:24:26.215Z,995.5
2022-07-30T02:25:30.769Z,995.5
2022-07-30T02:26:33.465Z,995.4
2022-07-30T02:27:39.301Z,995.4
2022-07-30T02:28:40.305Z,995.4
2022-07-30T02:29:41.643Z,995.3
2022-07-30T02:30:42.955Z,995.3
2022-07-30T02:31:44.786Z,995.3
2022-07-30T02:32:46.391Z,995.3
2022-07-30T02:33:50.523Z,995.3
2022-07-30T02:34:54.388Z,995.3
2022-07-30T02:35:55.967Z,995.3
2022-07-30T02:36:57.833Z,995.3
2022-07-30T02:37:59.656Z,995.3
2022-07-30T02:39:00.969Z,995.3
2022-07-30T02:40:02.268Z,995.2
2022-07-30T02:41:03.543Z,995.2
2022-07-30T02:42:05.124Z,995.3
2022-07-30T02:43:14.211Z,995.3
2022-07-30T02:44:18.443Z,995.3
2022-07-30T02:46:49.274Z,995.3
2022-07-30T02:47:59.313Z,995.3
2022-07-30T02:49:15.762Z,995.4
2022-07-30T02:50:32.463Z,995.3
2022-07-30T02:52:28.810Z,995.3
2022-07-30T02:53:30.305Z,995.3
2022-07-30T02:54:33.420Z,995.3
2022-07-30T02:55:41.772Z,995.3
2022-07-30T02:56:45.621Z,995.3
2022-07-30T02:58:04.607Z,995.3
2022-07-30T02:59:05.607Z,995.3
2022-07-30T03:00:06.910Z,995.3
2022-07-30T03:01:28.299Z,995.3
2022-07-30T03:03:02.729Z,995.2
2022-07-30T03:04:03.773Z,995.2
2022-07-30T03:05:12.183Z,995.2
2022-07-30T03:06:14.653Z,995.2
2022-07-30T03:07:18.694Z,995.2
2022-07-30T03:08:23.129Z,995.2
2022-07-30T03:09:53.562Z,995.2
2022-07-30T03:11:00.868Z,995.2
2022-07-30T03:50:52.699Z,995.3
2022-07-30T03:51:54.848Z,995.2
2022-07-30T03:52:59.143Z,995.3
2022-07-30T03:54:00.370Z,995.3
2022-07-30T03:55:26.812Z,995.3
2022-07-30T03:56:30.919Z,995.3
2022-07-30T03:57:33.476Z,995.3
2022-07-30T03:58:40.418Z,995.3
2022-07-30T03:59:45.062Z,995.2
2022-07-30T04:00:46.362Z,995.3
2022-07-30T04:01:51.405Z,995.3
2022-07-30T04:02:52.764Z,995.3
2022-07-30T04:05:42.434Z,995.3
2022-07-30T04:06:49.884Z,995.2
2022-07-30T04:07:54.949Z,995.2
2022-07-30T04:08:56.532Z,995.2
2022-07-30T04:09:58.078Z,995.2
2022-07-30T04:10:59.404Z,995.2
2022-07-30T04:12:00.875Z,995.1
2022-07-30T04:13:10.133Z,995.2
2022-07-30T04:14:11.117Z,995.2
2022-07-30T04:16:47.272Z,995.2
2022-07-30T04:17:49.125Z,995.2
2022-07-30T04:21:31.296Z,995.2
2022-07-30T04:22:32.832Z,995.2
2022-07-30T04:24:06.757Z,995.2
2022-07-30T04:25:07.997Z,995.2
2022-07-30T04:26:15.378Z,995.2
2022-07-30T04:27:20.450Z,995.2
2022-07-30T04:28:22.427Z,995.1
2022-07-30T04:29:26.151Z,995.2
2022-07-30T04:30:30.109Z,995.1
2022-07-30T04:31:42.163Z,995.1
2022-07-30T04:32:49.586Z,995.1
2022-07-30T04:33:50.613Z,995.1
2022-07-30T04:34:57.953Z,995.1
2022-07-30T04:36:02.250Z,995
2022-07-30T04:37:53.430Z,995
2022-07-30T04:38:55.502Z,995
2022-07-30T04:39:56.844Z,995
2022-07-30T04:41:00.503Z,995
2022-07-30T04:42:01.775Z,995
2022-07-30T04:43:14.398Z,995
2022-07-30T04:44:15.381Z,995
2022-07-30T04:45:16.368Z,995
2022-07-30T04:46:18.182Z,995.1
2022-07-30T04:47:19.625Z,995.1
2022-07-30T04:48:25.892Z,995.1
2022-07-30T04:49:35.743Z,995.1
2022-07-30T04:50:36.771Z,995.1
2022-07-30T04:51:37.785Z,995.1
2022-07-30T04:52:39.077Z,995.1
2022-07-30T04:53:40.627Z,995
2022-07-30T04:54:42.753Z,995
2022-07-30T04:55:43.977Z,995
2022-07-30T04:57:03.982Z,995
2022-07-30T04:58:11.345Z,995
2022-07-30T04:59:12.631Z,995
2022-07-30T05:00:13.943Z,995
2022-07-30T05:01:15.053Z,994.9
2022-07-30T05:02:17.059Z,995
2022-07-30T05:03:18.329Z,994.9
2022-07-30T05:04:19.342Z,994.9
2022-07-30T05:05:31.573Z,994.9
2022-07-30T05:06:32.865Z,994.9
2022-07-30T05:07:34.137Z,994.9
2022-07-30T05:08:36.073Z,994.9
2022-07-30T05:09:37.192Z,994.9
2022-07-30T05:10:38.995Z,994.9
2022-07-30T05:12:31.227Z,994.9
2022-07-30T05:13:41.081Z,994.9
2022-07-30T05:14:49.773Z,994.9
2022-07-30T05:15:51.160Z,994.9
2022-07-30T05:16:52.812Z,994.9
2022-07-30T05:17:55.339Z,994.9
2022-07-30T05:18:56.605Z,994.9
2022-07-30T05:20:00.185Z,994.9
2022-07-30T05:21:06.503Z,994.9
2022-07-30T05:22:08.336Z,994.9
2022-07-30T05:23:11.036Z,994.9
2022-07-30T05:24:13.110Z,994.9
2022-07-30T05:25:19.214Z,994.9
2022-07-30T05:26:28.147Z,995
2022-07-30T05:27:42.921Z,994.9
2022-07-30T05:28:57.683Z,995
2022-07-30T05:30:05.020Z,995
2022-07-30T05:31:22.077Z,995
2022-07-30T05:32:27.813Z,995
2022-07-30T05:33:54.720Z,995
2022-07-30T05:34:56.629Z,995.1
2022-07-30T05:35:58.210Z,995
2022-07-30T05:37:03.007Z,995
2022-07-30T05:38:04.824Z,995.1
2022-07-30T05:39:06.370Z,995.1
2022-07-30T05:40:07.693Z,995.1
2022-07-30T05:41:34.029Z,995.1
2022-07-30T05:42:35.892Z,995.1
2022-07-30T05:43:37.357Z,995
2022-07-30T05:44:38.616Z,995
2022-07-30T05:45:39.596Z,995
2022-07-30T05:46:41.400Z,995
2022-07-30T05:47:43.491Z,995.1
2022-07-30T05:48:45.210Z,995
2022-07-30T05:49:49.092Z,995
2022-07-30T05:50:50.370Z,995
2022-07-30T05:51:52.165Z,995
2022-07-30T05:52:54.003Z,995
2022-07-30T05:53:55.268Z,995.1
2022-07-30T05:54:56.823Z,995
2022-07-30T05:55:58.846Z,995.1
2022-07-30T05:57:02.796Z,995.1
2022-07-30T05:58:04.502Z,995.1
2022-07-30T05:59:06.052Z,995.1
2022-07-30T06:00:11.898Z,995.1
2022-07-30T06:01:13.549Z,995.1
2022-07-30T06:02:15.118Z,995.1
2022-07-30T06:03:16.640Z,995.2
2022-07-30T06:04:18.768Z,995.1
2022-07-30T06:05:19.788Z,995.2
2022-07-30T06:06:24.816Z,995.1
2022-07-30T06:07:26.490Z,995.1
2022-07-30T06:08:28.579Z,995.1
2022-07-30T06:09:38.986Z,995.1
2022-07-30T06:10:40.826Z,995.1
2022-07-30T06:11:42.887Z,995.1
2022-07-30T06:12:44.954Z,995
2022-07-30T06:13:47.291Z,995.1
2022-07-30T06:14:49.092Z,995.1
2022-07-30T06:15:50.738Z,995
2022-07-30T06:16:52.075Z,995.1
2022-07-30T06:18:07.264Z,995.1
2022-07-30T06:19:23.098Z,995.1
2022-07-30T06:20:24.254Z,995.1
2022-07-30T06:21:25.755Z,995
2022-07-30T06:22:27.910Z,995
2022-07-30T06:23:29.668Z,995
2022-07-30T06:24:31.728Z,994.9
2022-07-30T06:25:34.144Z,995
2022-07-30T06:26:35.416Z,995
2022-07-30T06:27:42.098Z,995
2022-07-30T06:28:43.605Z,995
2022-07-30T06:29:45.383Z,995
2022-07-30T06:30:47.775Z,995.1
2022-07-30T06:31:49.810Z,995
2022-07-30T06:32:51.855Z,995
2022-07-30T06:33:53.638Z,995.1
2022-07-30T06:35:06.237Z,995.1
2022-07-30T06:36:07.486Z,995.1
2022-07-30T06:37:08.468Z,995.1
2022-07-30T06:38:10.294Z,995
2022-07-30T06:39:12.381Z,995
2022-07-30T06:40:14.754Z,995
2022-07-30T06:41:16.838Z,995
2022-07-30T06:42:18.357Z,995
2022-07-30T06:43:19.713Z,995
2022-07-30T06:44:21.085Z,995
2022-07-30T06:45:30.656Z,995
2022-07-30T06:46:52.617Z,995
2022-07-30T06:48:07.324Z,995
2022-07-30T06:49:08.947Z,995
2022-07-30T06:50:13.726Z,995
2022-07-30T06:51:15.356Z,994.9
2022-07-30T06:52:20.397Z,994.9
2022-07-30T06:53:22.306Z,995
2022-07-30T06:54:24.073Z,994.9
2022-07-30T06:55:25.937Z,994.9
2022-07-30T06:56:27.881Z,995
2022-07-30T06:57:40.537Z,994.9
2022-07-30T06:59:20.877Z,995
2022-07-30T07:00:33.281Z,995
2022-07-30T07:01:42.941Z,994.9
2022-07-30T07:03:17.223Z,994.9
2022-07-30T07:04:18.554Z,994.8
2022-07-30T07:05:20.571Z,994.8
2022-07-30T07:06:22.442Z,994.8
2022-07-30T07:08:00.520Z,994.8
2022-07-30T07:09:02.186Z,994.9
2022-07-30T07:10:04.009Z,994.9
2022-07-30T07:11:05.207Z,994.9
2022-07-30T07:12:07.619Z,994.9
2022-07-30T07:13:11.783Z,994.9
2022-07-30T07:14:12.768Z,994.9
2022-07-30T07:15:14.592Z,994.9
2022-07-30T07:16:15.821Z,994.9
2022-07-30T07:17:17.309Z,994.9
2022-07-30T07:18:18.593Z,994.8
2022-07-30T07:20:09.183Z,994.8
2022-07-30T07:21:11.298Z,994.8
2022-07-30T07:22:13.175Z,994.8
2022-07-30T07:24:26.043Z,994.8
2022-07-30T07:26:07.677Z,994.8
2022-07-30T07:28:40.286Z,994.8
2022-07-30T07:30:28.133Z,994.8
2022-07-30T07:32:09.166Z,994.8
2022-07-30T07:33:20.622Z,994.8
2022-07-30T07:34:21.624Z,994.8
2022-07-30T07:35:23.748Z,994.8
2022-07-30T07:36:26.367Z,994.8
2022-07-30T07:37:27.654Z,994.8
2022-07-30T07:38:28.960Z,994.8
2022-07-30T07:39:30.229Z,994.8
2022-07-30T07:40:31.528Z,994.8
2022-07-30T07:41:53.571Z,994.8
2022-07-30T07:42:55.918Z,994.7
2022-07-30T07:43:59.261Z,994.7
2022-07-30T07:45:01.050Z,994.7
2022-07-30T07:46:04.443Z,994.7
2022-07-30T07:47:06.778Z,994.7
2022-07-30T07:48:16.005Z,994.7
2022-07-30T07:49:18.302Z,994.7
2022-07-30T07:50:19.612Z,994.6
2022-07-30T07:51:49.421Z,994.6
2022-07-30T08:31:33.675Z,994.7
2022-07-30T08:32:35.218Z,994.5
2022-07-30T08:33:40.291Z,994.5
2022-07-30T08:34:44.105Z,994.4
2022-07-30T08:36:10.761Z,994.4
2022-07-30T08:37:15.577Z,994.4
2022-07-30T08:38:17.163Z,994.4
2022-07-30T08:39:18.253Z,994.4
2022-07-30T08:40:19.783Z,994.4
2022-07-30T08:41:20.780Z,994.4
2022-07-30T08:42:21.775Z,994.4
2022-07-30T08:43:23.050Z,994.4
2022-07-30T08:44:24.803Z,994.4
2022-07-30T08:45:37.002Z,994.4
2022-07-30T08:46:38.500Z,994.4
2022-07-30T08:47:39.767Z,994.4
2022-07-30T08:48:41.054Z,994.4
2022-07-30T08:49:42.385Z,994.4
2022-07-30T08:50:43.613Z,994.4
2022-07-30T08:51:44.620Z,994.4
2022-07-30T08:52:45.606Z,994.4
2022-07-30T08:53:46.617Z,994.4
2022-07-30T08:54:49.188Z,994.5
2022-07-30T08:55:51.157Z,994.4
2022-07-30T08:56:53.373Z,994.5
2022-07-30T08:57:54.962Z,994.4
2022-07-30T08:58:56.133Z,994.4
2022-07-30T09:00:03.044Z,994.4
2022-07-30T09:01:04.911Z,994.4
2022-07-30T09:02:14.507Z,994.4
2022-07-30T09:03:16.121Z,994.4
2022-07-30T09:04:17.402Z,994.4
2022-07-30T09:05:19.606Z,994.5
2022-07-30T09:06:20.891Z,994.5
2022-07-30T09:07:21.955Z,994.5
2022-07-30T09:08:23.510Z,994.5
2022-07-30T09:09:24.870Z,994.5
2022-07-30T09:10:25.865Z,994.5
2022-07-30T09:11:27.446Z,994.5
2022-07-30T09:12:29.810Z,994.5
2022-07-30T09:13:31.886Z,994.5
2022-07-30T09:14:33.188Z,994.4
2022-07-30T09:15:34.753Z,994.5
2022-07-30T09:16:37.411Z,994.5
2022-07-30T09:17:38.888Z,994.4
2022-07-30T09:18:40.458Z,994.4
2022-07-30T09:19:42.078Z,994.4
2022-07-30T09:20:44.474Z,994.4
2022-07-30T09:21:47.117Z,994.4
2022-07-30T09:22:48.612Z,994.4
2022-07-30T09:23:53.266Z,994.4
2022-07-30T09:24:55.353Z,994.4
2022-07-30T09:25:56.665Z,994.4
2022-07-30T09:26:59.301Z,994.4
2022-07-30T09:28:02.333Z,994.4
2022-07-30T09:29:17.642Z,994.4
2022-07-30T09:30:19.266Z,994.4
2022-07-30T09:31:21.367Z,994.4
2022-07-30T09:32:22.672Z,994.3
2022-07-30T09:33:30.137Z,994.3
2022-07-30T09:34:31.165Z,994.4
2022-07-30T09:35:33.169Z,994.4
2022-07-30T09:36:35.727Z,994.4
2022-07-30T09:37:41.643Z,994.4
2022-07-30T09:38:43.159Z,994.4
2022-07-30T09:40:00.902Z,994.4
2022-07-30T09:41:40.482Z,994.4
2022-07-30T09:42:41.831Z,994.5
2022-07-30T09:43:43.380Z,994.5
2022-07-30T09:44:44.672Z,994.5
2022-07-30T09:45:59.424Z,994.4
2022-07-30T09:47:00.440Z,994.4
2022-07-30T09:48:02.259Z,994.4
2022-07-30T09:49:04.713Z,994.4
2022-07-30T09:50:09.048Z,994.4
2022-07-30T09:51:58.431Z,994.3
2022-07-30T09:53:00.697Z,994.3
2022-07-30T09:54:06.264Z,994.3
2022-07-30T09:55:12.243Z,994.3
2022-07-30T09:56:17.053Z,994.3
2022-07-30T09:57:29.337Z,994.2
2022-07-30T09:58:30.639Z,994.3
2022-07-30T09:59:36.454Z,994.3
2022-07-30T10:02:11.713Z,994.3
2022-07-30T10:03:43.911Z,994.2
2022-07-30T10:04:47.704Z,994.3
2022-07-30T10:05:53.022Z,994.3
2022-07-30T10:06:56.263Z,994.3
2022-07-30T10:07:59.314Z,994.3
2022-07-30T10:09:17.019Z,994.4
2022-07-30T10:10:26.058Z,994.4
2022-07-30T10:11:33.702Z,994.3
2022-07-30T10:12:40.362Z,994.3
2022-07-30T10:13:46.572Z,994.3
2022-07-30T10:14:48.374Z,994.3
2022-07-30T10:15:50.645Z,994.3
2022-07-30T10:16:51.673Z,994.3
2022-07-30T10:17:53.719Z,994.4
2022-07-30T10:18:55.614Z,994.3
2022-07-30T10:20:03.236Z,994.3
2022-07-30T10:21:10.727Z,994.4
2022-07-30T10:22:19.696Z,994.4
2022-07-30T10:23:33.189Z,994.3
2022-07-30T10:24:35.080Z,994.3
2022-07-30T10:25:56.317Z,994.3
2022-07-30T10:27:00.974Z,994.4
2022-07-30T10:28:08.865Z,994.4
2022-07-30T10:29:17.299Z,994.4
2022-07-30T10:30:30.211Z,994.4
2022-07-30T10:31:56.493Z,994.4
2022-07-30T10:32:57.841Z,994.5
2022-07-30T10:33:58.991Z,994.4
2022-07-30T10:35:01.187Z,994.5
2022-07-30T10:37:09.175Z,994.4
2022-07-30T10:38:17.189Z,994.4
2022-07-30T10:39:20.375Z,994.5
2022-07-30T10:40:32.255Z,994.4
2022-07-30T10:41:55.721Z,994.5
2022-07-30T10:42:57.593Z,994.4
2022-07-30T10:44:04.333Z,994.5
2022-07-30T10:45:07.142Z,994.4
2022-07-30T10:46:24.379Z,994.5
2022-07-30T10:47:50.020Z,994.4
2022-07-30T10:48:53.035Z,994.5
2022-07-30T10:49:56.732Z,994.5
2022-07-30T10:51:01.341Z,994.4
2022-07-30T10:52:02.925Z,994.4
2022-07-30T10:53:04.744Z,994.4
2022-07-30T10:54:13.446Z,994.3
2022-07-30T10:55:19.276Z,994.3
2022-07-30T10:56:39.028Z,994.3
2022-07-30T10:57:46.161Z,994.3
2022-07-30T10:58:56.620Z,994.3
2022-07-30T11:00:01.237Z,994.3
2022-07-30T11:01:19.133Z,994.3
2022-07-30T11:02:28.789Z,994.3
2022-07-30T11:03:50.374Z,994.3
2022-07-30T11:04:56.633Z,994.2
2022-07-30T11:06:00.261Z,994.3
2022-07-30T11:07:02.543Z,994.2
2022-07-30T11:08:12.525Z,994.1
2022-07-30T11:09:18.032Z,994.1
2022-07-30T11:10:21.181Z,994.2
2022-07-30T11:12:21.445Z,994.2
2022-07-30T11:13:27.917Z,994.2
2022-07-30T11:14:31.749Z,994.2
2022-07-30T11:15:40.772Z,994.2
2022-07-30T11:16:43.730Z,994.3
2022-07-30T11:17:45.331Z,994.3
2022-07-30T11:20:02.558Z,994.3
2022-07-30T11:21:07.369Z,994.3
2022-07-30T11:22:17.052Z,994.3
2022-07-30T11:23:21.730Z,994.3
2022-07-30T11:24:24.337Z,994.3
2022-07-30T11:25:55.617Z,994.3
2022-07-30T11:26:57.441Z,994.3
2022-07-30T11:27:59.825Z,994.3
2022-07-30T11:29:02.409Z,994.3
2022-07-30T11:30:04.760Z,994.3
2022-07-30T11:31:11.793Z,994.3
2022-07-30T11:32:15.730Z,994.2
2022-07-30T11:33:33.290Z,994.3
2022-07-30T11:34:40.159Z,994.3
2022-07-30T11:35:42.126Z,994.3
2022-07-30T11:36:48.655Z,994.2
2022-07-30T11:37:58.327Z,994.2
2022-07-30T11:39:09.222Z,994.2
2022-07-30T11:40:11.551Z,994.2
2022-07-30T11:41:18.780Z,994.2
2022-07-30T11:42:23.701Z,994.3
2022-07-30T11:43:37.716Z,994.3
2022-07-30T11:44:38.705Z,994.3
2022-07-30T11:45:41.010Z,994.3
2022-07-30T11:46:43.884Z,994.3
2022-07-30T11:47:45.332Z,994.4
2022-07-30T11:48:47.833Z,994.3
2022-07-30T11:49:49.887Z,994.3
2022-07-30T11:50:50.951Z,994.2
2022-07-30T11:51:51.973Z,994.2
2022-07-30T11:52:56.681Z,994.2
2022-07-30T11:53:57.700Z,994.2
2022-07-30T11:55:00.372Z,994.2
2022-07-30T11:56:06.319Z,994.1
2022-07-30T11:57:07.305Z,994.1
2022-07-30T11:58:09.430Z,994.1
2022-07-30T11:59:10.702Z,994.1
2022-07-30T12:00:11.692Z,994
2022-07-30T12:01:13.519Z,994
2022-07-30T12:02:14.525Z,994
2022-07-30T12:03:15.557Z,994.1
2022-07-30T12:04:16.890Z,994
2022-07-30T12:05:17.926Z,994
2022-07-30T12:06:19.526Z,994.1
2022-07-30T12:07:20.839Z,994.1
2022-07-30T12:08:37.168Z,994.1
2022-07-30T12:09:44.670Z,994.2
2022-07-30T12:10:47.348Z,994.2
2022-07-30T12:11:49.708Z,994.2
2022-07-30T12:12:51.291Z,994.2
2022-07-30T12:13:54.187Z,994.2
2022-07-30T12:15:04.153Z,994.2
2022-07-30T12:16:06.226Z,994.2
2022-07-30T12:17:16.669Z,994.2
2022-07-30T12:18:30.893Z,994.2
2022-07-30T12:19:50.353Z,994.3
2022-07-30T12:21:00.074Z,994.2
2022-07-30T12:22:01.073Z,994.2
2022-07-30T12:23:02.333Z,994.3
2022-07-30T12:24:03.879Z,994.3
2022-07-30T12:25:13.472Z,994.2
2022-07-30T12:26:28.580Z,994.2
2022-07-30T12:27:29.669Z,994.2
2022-07-30T12:28:30.663Z,994.2
2022-07-30T12:29:32.173Z,994.2
2022-07-30T12:30:33.724Z,994.2
2022-07-30T12:31:40.953Z,994.1
2022-07-30T12:32:42.891Z,994.2
2022-07-30T12:33:44.505Z,994.1
2022-07-30T12:34:46.302Z,994.1
2022-07-30T12:35:47.604Z,994.1
2022-07-30T12:36:48.599Z,994.1
2022-07-30T12:37:50.432Z,994.1
2022-07-30T12:38:51.453Z,994.1
2022-07-30T12:39:53.680Z,994.2
2022-07-30T12:40:55.255Z,994.1
2022-07-30T12:41:57.603Z,994.2
2022-07-30T12:42:59.725Z,994.2
2022-07-30T12:44:01.552Z,994.3
2022-07-30T12:45:02.832Z,994.3
2022-07-30T12:46:04.318Z,994.3
2022-07-30T12:47:08.914Z,994.3
2022-07-30T12:48:11.003Z,994.3
2022-07-30T12:49:52.264Z,994.2
2022-07-30T12:50:56.826Z,994.3
2022-07-30T12:52:02.248Z,994.3
2022-07-30T12:53:03.253Z,994.3
2022-07-30T12:54:04.751Z,994.4
2022-07-30T12:55:06.295Z,994.3
2022-07-30T12:56:08.689Z,994.3
2022-07-30T12:57:10.518Z,994.4
2022-07-30T12:58:12.370Z,994.4
2022-07-30T12:59:14.214Z,994.4
2022-07-30T13:00:16.085Z,994.4
2022-07-30T13:01:17.712Z,994.5
2022-07-30T13:02:19.539Z,994.4
2022-07-30T13:03:25.368Z,994.5
2022-07-30T13:04:27.629Z,994.5
2022-07-30T13:05:29.410Z,994.5
2022-07-30T13:06:30.407Z,994.4
2022-07-30T13:07:31.709Z,994.4
2022-07-30T13:08:32.969Z,994.4
2022-07-30T13:09:35.527Z,994.4
2022-07-30T13:10:36.987Z,994.4
2022-07-30T13:11:38.613Z,994.4
2022-07-30T13:12:40.135Z,994.4
2022-07-30T13:13:41.433Z,994.4
2022-07-30T13:14:43.428Z,994.3
2022-07-30T13:15:55.725Z,994.3
2022-07-30T13:16:59.149Z,994.4
2022-07-30T13:18:01.038Z,994.3
2022-07-30T13:19:15.184Z,994.3
2022-07-30T13:20:17.655Z,994.3
2022-07-30T13:21:19.779Z,994.3
2022-07-30T13:22:20.805Z,994.3
2022-07-30T13:23:22.439Z,994.4
2022-07-30T13:24:24.083Z,994.4
2022-07-30T13:25:41.500Z,994.4
2022-07-30T13:26:43.791Z,994.4
2022-07-30T13:27:45.682Z,994.4
2022-07-30T13:28:46.999Z,994.5
2022-07-30T13:29:48.360Z,994.5
2022-07-30T13:30:50.281Z,994.5
2022-07-30T13:31:51.565Z,994.5
2022-07-30T13:32:53.392Z,994.5
2022-07-30T13:33:55.137Z,994.5
2022-07-30T13:35:05.419Z,994.5
2022-07-30T13:36:06.985Z,994.5
2022-07-30T13:37:08.230Z,994.5
2022-07-30T13:38:11.144Z,994.5
2022-07-30T13:39:12.432Z,994.5
2022-07-30T13:40:14.259Z,994.5
2022-07-30T13:41:15.815Z,994.5
2022-07-30T13:42:17.088Z,994.6
2022-07-30T13:43:18.686Z,994.6
2022-07-30T13:44:19.979Z,994.6
2022-07-30T13:45:21.771Z,994.5
2022-07-30T13:46:23.305Z,994.6
2022-07-30T13:47:24.358Z,994.5
2022-07-30T13:48:25.933Z,994.5
2022-07-30T13:49:31.022Z,994.5
2022-07-30T13:50:33.853Z,994.5
2022-07-30T13:51:36.246Z,994.5
2022-07-30T13:52:38.986Z,994.5
2022-07-30T13:53:40.875Z,994.5
2022-07-30T13:54:50.441Z,994.4
2022-07-30T13:55:51.715Z,994.4
2022-07-30T13:56:53.371Z,994.4
2022-07-30T13:57:55.350Z,994.5
2022-07-30T13:58:57.315Z,994.5
2022-07-30T13:59:59.443Z,994.5
2022-07-30T14:01:00.442Z,994.5
2022-07-30T14:02:01.872Z,994.5
2022-07-30T14:03:07.449Z,994.5
2022-07-30T14:04:08.737Z,994.5
2022-07-30T14:05:10.828Z,994.6
2022-07-30T14:06:13.013Z,994.6
2022-07-30T14:07:14.570Z,994.7
2022-07-30T14:08:16.123Z,994.7
2022-07-30T14:09:17.268Z,994.7
2022-07-30T14:10:19.108Z,994.7
2022-07-30T14:11:21.008Z,994.7
2022-07-30T14:12:23.381Z,994.8
2022-07-30T14:13:24.657Z,994.7
2022-07-30T14:14:27.029Z,994.7
2022-07-30T14:15:28.865Z,994.8
2022-07-30T14:16:46.769Z,994.8
2022-07-30T14:17:58.395Z,994.8
2022-07-30T14:19:00.549Z,994.8
2022-07-30T14:20:02.727Z,994.8
2022-07-30T14:21:04.339Z,994.8
2022-07-30T14:22:08.662Z,994.8
2022-07-30T14:23:10.542Z,994.8
2022-07-30T14:24:14.699Z,994.8
2022-07-30T14:25:17.171Z,994.9
2022-07-30T14:26:18.417Z,994.8
2022-07-30T14:27:20.272Z,994.8
2022-07-30T14:28:22.093Z,994.8
2022-07-30T14:29:23.939Z,994.8
2022-07-30T14:30:25.784Z,994.8
2022-07-30T14:31:27.311Z,994.8
2022-07-30T14:32:33.769Z,994.7
2022-07-30T14:33:35.051Z,994.7
2022-07-30T14:34:36.069Z,994.7
2022-07-30T14:35:37.110Z,994.6
2022-07-30T14:36:38.388Z,994.6
2022-07-30T14:37:40.981Z,994.6
2022-07-30T14:38:43.056Z,994.7
2022-07-30T14:39:45.719Z,994.7
2022-07-30T14:40:47.783Z,994.6
2022-07-30T14:41:57.182Z,994.6
2022-07-30T14:42:59.241Z,994.6
2022-07-30T14:44:01.593Z,994.6
2022-07-30T14:45:03.379Z,994.6
2022-07-30T14:46:05.457Z,994.5
2022-07-30T14:47:09.793Z,994.5
2022-07-30T14:48:11.779Z,994.5
2022-07-30T14:49:18.677Z,994.6
2022-07-30T14:50:20.730Z,994.6
2022-07-30T14:51:35.594Z,994.6
2022-07-30T14:52:36.589Z,994.6
2022-07-30T14:53:40.546Z,994.6
2022-07-30T14:54:42.029Z,994.6
2022-07-30T14:55:44.414Z,994.6
2022-07-30T14:56:47.042Z,994.7
2022-07-30T14:57:48.886Z,994.6
2022-07-30T14:58:50.754Z,994.6
2022-07-30T14:59:52.841Z,994.7
2022-07-30T15:00:56.840Z,994.7
2022-07-30T15:01:59.030Z,994.6
2022-07-30T15:03:00.412Z,994.6
2022-07-30T15:04:01.945Z,994.6
2022-07-30T15:05:03.207Z,994.7
2022-07-30T15:06:04.510Z,994.7
2022-07-30T15:07:07.985Z,994.8
2022-07-30T15:08:10.762Z,994.8
2022-07-30T15:09:12.297Z,994.8
2022-07-30T15:10:16.685Z,994.8
2022-07-30T15:11:23.056Z,994.8
2022-07-30T15:12:30.075Z,994.9
2022-07-30T15:13:33.518Z,994.9
2022-07-30T15:14:38.212Z,994.9
2022-07-30T15:15:46.460Z,995
2022-07-30T15:16:48.657Z,995
2022-07-30T15:17:50.301Z,995
2022-07-30T15:18:51.860Z,995
2022-07-30T15:19:52.889Z,995.1
2022-07-30T15:20:54.487Z,995.1
2022-07-30T15:21:55.803Z,995.1
2022-07-30T15:22:57.041Z,995.1
2022-07-30T15:23:58.688Z,995.1
2022-07-30T15:24:59.678Z,995.1
2022-07-30T15:26:00.712Z,995.2
2022-07-30T15:27:02.652Z,995.3
2022-07-30T15:28:04.217Z,995.3
2022-07-30T15:29:13.769Z,995.5
2022-07-30T15:30:15.638Z,995.5
2022-07-30T15:31:18.491Z,995.5
2022-07-30T15:32:23.056Z,995.5